Time;durP1;ratioP1;P1;durP2;ratioP2;P2;SDS_P1;SDS_P2;PMS_P1;PMS_P2;Temp;Humidity;BMP_temperature;BMP_pressure;BME280_temperature;BME280_humidity;BME280_pressure;Samples;Min_cycle;Max_cycle;Signal;HPM_P1;HPM_P2
2022/03/03 00:02:05;;;;;;;68.55;33.00;;;;;;;;;;4953907;28;20039;-81
2022/03/03 00:04:31;;;;;;;58.08;28.88;;;;;;;;;;4954850;28;20030;-81
2022/03/03 00:06:57;;;;;;;51.45;26.80;;;;;;;;;;4968781;28;20397;-81
2022/03/03 00:09:23;;;;;;;48.97;24.05;;;;;;;;;;4971299;28;20051;-82
2022/03/03 00:11:49;;;;;;;49.45;26.20;;;;;;;;;;4969730;28;20043;-81
2022/03/03 00:14:15;;;;;;;50.65;27.95;;;;;;;;;;4936784;28;20449;-82
2022/03/03 00:16:41;;;;;;;50.47;25.27;;;;;;;;;;4939027;28;21540;-81
2022/03/03 00:19:07;;;;;;;49.05;27.33;;;;;;;;;;4958884;28;20040;-81
2022/03/03 00:21:32;;;;;;;45.58;26.73;;;;;;;;;;4949523;28;20043;-82
2022/03/03 00:23:59;;;;;;;57.42;28.40;;;;;;;;;;4956414;28;20118;-81
2022/03/03 00:26:25;;;;;;;54.45;28.55;;;;;;;;;;4953581;28;20039;-82
2022/03/03 00:28:51;;;;;;;46.35;24.33;;;;;;;;;;4934398;28;20070;-81
2022/03/03 00:31:16;;;;;;;62.78;30.40;;;;;;;;;;4950570;28;20051;-81
2022/03/03 00:33:42;;;;;;;50.95;27.50;;;;;;;;;;4953404;28;20053;-81
2022/03/03 00:36:08;;;;;;;49.78;26.45;;;;;;;;;;4957053;28;20110;-81
2022/03/03 00:38:34;;;;;;;54.80;26.45;;;;;;;;;;4957218;28;20097;-81
2022/03/03 00:40:59;;;;;;;50.92;24.25;;;;;;;;;;4953291;28;20098;-81
2022/03/03 00:43:25;;;;;;;55.28;27.20;;;;;;;;;;4956090;28;20039;-81
2022/03/03 00:45:51;;;;;;;58.80;31.23;;;;;;;;;;4947360;28;20036;-81
2022/03/03 00:48:17;;;;;;;52.45;27.27;;;;;;;;;;4987282;28;20039;-81
2022/03/03 00:50:43;;;;;;;56.45;28.50;;;;;;;;;;4971627;28;20069;-81
2022/03/03 00:53:08;;;;;;;47.05;26.73;;;;;;;;;;4953639;28;20043;-80
2022/03/03 00:55:34;;;;;;;61.42;31.77;;;;;;;;;;4971516;28;20073;-80
2022/03/03 00:58:00;;;;;;;59.72;32.33;;;;;;;;;;4970103;28;20051;-80
2022/03/03 01:00:26;;;;;;;61.70;33.65;;;;;;;;;;4985633;28;20042;-81
2022/03/03 01:02:52;;;;;;;66.35;33.53;;;;;;;;;;4953906;28;20050;-80
2022/03/03 01:05:18;;;;;;;63.17;31.70;;;;;;;;;;4957909;28;20352;-80
2022/03/03 01:07:43;;;;;;;53.50;29.85;;;;;;;;;;4958172;28;20463;-80
2022/03/03 01:10:11;;;;;;;50.38;27.63;;;;;;;;;;4951163;28;20423;-80
2022/03/03 01:12:37;;;;;;;48.97;27.25;;;;;;;;;;4950990;28;20045;-80
2022/03/03 01:15:07;;;;;;;43.30;25.02;;;;;;;;;;4958390;28;20039;-80
2022/03/03 01:17:33;;;;;;;42.90;24.75;;;;;;;;;;4970928;28;20057;-80
2022/03/03 01:19:59;;;;;;;42.88;23.73;;;;;;;;;;4949200;28;20043;-80
2022/03/03 01:22:25;;;;;;;42.22;23.83;;;;;;;;;;4970219;28;20046;-80
2022/03/03 01:24:51;;;;;;;41.10;23.80;;;;;;;;;;4940557;28;20118;-80
2022/03/03 01:27:17;;;;;;;39.20;22.63;;;;;;;;;;4954210;28;20069;-80
2022/03/03 01:29:42;;;;;;;36.92;22.60;;;;;;;;;;4962982;28;20043;-80
2022/03/03 01:32:08;;;;;;;41.45;23.73;;;;;;;;;;4937819;28;20494;-80
2022/03/03 01:34:35;;;;;;;37.88;22.00;;;;;;;;;;4981799;28;20170;-80
2022/03/03 01:37:01;;;;;;;36.83;21.88;;;;;;;;;;4955244;28;20048;-80
2022/03/03 01:39:27;;;;;;;39.45;22.25;;;;;;;;;;4951783;28;20039;-79
2022/03/03 01:41:52;;;;;;;41.58;24.58;;;;;;;;;;4971519;28;20044;-80
2022/03/03 01:44:18;;;;;;;41.67;22.52;;;;;;;;;;4947754;28;20047;-80
2022/03/03 01:46:49;;;;;;;43.25;23.80;;;;;;;;;;4983901;28;20047;-80
2022/03/03 01:49:14;;;;;;;45.70;24.92;;;;;;;;;;4951801;28;20043;-80
2022/03/03 01:51:40;;;;;;;36.80;22.05;;;;;;;;;;4942016;28;20455;-80
2022/03/03 01:54:06;;;;;;;39.67;21.42;;;;;;;;;;4956279;28;20043;-80
2022/03/03 01:56:32;;;;;;;38.40;21.17;;;;;;;;;;4961365;28;20051;-80
2022/03/03 01:58:58;;;;;;;36.25;21.92;;;;;;;;;;4938613;28;20036;-80
2022/03/03 02:01:24;;;;;;;37.50;21.25;;;;;;;;;;4953052;28;20049;-80
2022/03/03 02:03:50;;;;;;;34.97;21.27;;;;;;;;;;4971054;28;20039;-80
2022/03/03 02:06:16;;;;;;;36.67;21.35;;;;;;;;;;4934290;28;20036;-80
2022/03/03 02:08:41;;;;;;;49.72;25.92;;;;;;;;;;4945791;28;25274;-80
2022/03/03 02:11:07;;;;;;;50.05;26.77;;;;;;;;;;4967906;28;20039;-80
2022/03/03 02:13:34;;;;;;;59.92;28.77;;;;;;;;;;4959141;28;20169;-80
2022/03/03 02:16:00;;;;;;;52.60;28.73;;;;;;;;;;4950171;28;20071;-80
2022/03/03 02:18:25;;;;;;;57.00;28.48;;;;;;;;;;4963682;28;20399;-80
2022/03/03 02:20:51;;;;;;;57.90;29.00;;;;;;;;;;4966492;28;20074;-80
2022/03/03 02:23:18;;;;;;;57.28;29.05;;;;;;;;;;4973568;28;20043;-80
2022/03/03 02:25:44;;;;;;;49.38;27.23;;;;;;;;;;4963289;28;20046;-80
2022/03/03 02:28:10;;;;;;;49.63;25.88;;;;;;;;;;4970084;28;20047;-81
2022/03/03 02:30:36;;;;;;;49.00;24.88;;;;;;;;;;4973963;28;20074;-80
2022/03/03 02:33:02;;;;;;;42.67;22.17;;;;;;;;;;4978244;28;20039;-79
2022/03/03 02:35:29;;;;;;;48.85;24.27;;;;;;;;;;4962197;28;20094;-79
2022/03/03 02:37:55;;;;;;;46.75;24.40;;;;;;;;;;4971015;28;20110;-79
2022/03/03 02:40:21;;;;;;;42.95;22.15;;;;;;;;;;4954127;28;20047;-80
2022/03/03 02:42:47;;;;;;;43.53;23.45;;;;;;;;;;4969505;28;20046;-80
2022/03/03 02:45:13;;;;;;;39.75;21.70;;;;;;;;;;4971813;28;20039;-80
2022/03/03 02:47:41;;;;;;;44.67;23.65;;;;;;;;;;4954526;28;20496;-80
2022/03/03 02:50:08;;;;;;;42.75;23.67;;;;;;;;;;4948788;28;20460;-79
2022/03/03 02:52:33;;;;;;;43.28;25.25;;;;;;;;;;4967374;28;20145;-80
2022/03/03 02:54:59;;;;;;;42.22;23.83;;;;;;;;;;4955161;28;20046;-80
2022/03/03 03:00:10;;;;;;;37.50;21.08;;;;;;;;;;4971717;28;20062;-80
2022/03/03 03:02:36;;;;;;;42.38;22.17;;;;;;;;;;4954945;28;20120;-79
2022/03/03 03:05:01;;;;;;;42.00;22.75;;;;;;;;;;4964011;28;20034;-80
2022/03/03 03:07:27;;;;;;;40.55;23.10;;;;;;;;;;4952019;28;20039;-80
2022/03/03 03:09:53;;;;;;;40.97;21.60;;;;;;;;;;4970645;28;20074;-80
2022/03/03 03:12:19;;;;;;;37.08;22.63;;;;;;;;;;4952022;28;20121;-80
2022/03/03 03:14:44;;;;;;;39.28;21.35;;;;;;;;;;4949207;28;20058;-80
2022/03/03 03:17:10;;;;;;;42.53;22.80;;;;;;;;;;4968653;28;20106;-79
2022/03/03 03:19:36;;;;;;;38.47;21.30;;;;;;;;;;4956930;28;20429;-80
2022/03/03 03:22:03;;;;;;;37.40;21.38;;;;;;;;;;4968753;28;20105;-79
2022/03/03 03:24:29;;;;;;;37.70;22.17;;;;;;;;;;4953904;28;20073;-79
2022/03/03 03:26:55;;;;;;;34.08;20.52;;;;;;;;;;4964308;28;20063;-80
2022/03/03 03:29:20;;;;;;;35.25;21.13;;;;;;;;;;4970883;28;20487;-80
2022/03/03 03:31:46;;;;;;;41.03;20.83;;;;;;;;;;4968826;28;20412;-80
2022/03/03 03:34:12;;;;;;;33.25;20.15;;;;;;;;;;4969445;28;22364;-80
2022/03/03 03:36:37;;;;;;;35.97;21.45;;;;;;;;;;4969641;28;20500;-80
2022/03/03 03:39:03;;;;;;;43.38;22.92;;;;;;;;;;4953625;28;20031;-80
2022/03/03 03:41:30;;;;;;;39.65;21.90;;;;;;;;;;4967669;28;20039;-79
2022/03/03 03:43:55;;;;;;;35.97;21.02;;;;;;;;;;4955338;28;20043;-80
2022/03/03 03:46:21;;;;;;;37.22;20.73;;;;;;;;;;4971817;28;20065;-79
2022/03/03 03:48:47;;;;;;;40.78;21.85;;;;;;;;;;4957405;28;20050;-80
2022/03/03 03:51:13;;;;;;;38.15;22.08;;;;;;;;;;4968166;28;20055;-79
2022/03/03 03:53:39;;;;;;;37.88;21.90;;;;;;;;;;4968935;28;20046;-79
2022/03/03 03:56:05;;;;;;;37.75;22.13;;;;;;;;;;4969662;28;20524;-79
2022/03/03 03:58:31;;;;;;;39.40;21.17;;;;;;;;;;4965695;28;20400;-79
2022/03/03 04:00:57;;;;;;;38.42;21.42;;;;;;;;;;4961872;28;20048;-79
2022/03/03 04:03:22;;;;;;;37.53;21.88;;;;;;;;;;4934173;28;20046;-79
2022/03/03 04:05:48;;;;;;;37.35;20.85;;;;;;;;;;4961899;28;20027;-79
2022/03/03 04:08:14;;;;;;;39.70;20.67;;;;;;;;;;4958501;28;20042;-79
2022/03/03 04:10:40;;;;;;;38.83;20.80;;;;;;;;;;4932938;28;20047;-78
2022/03/03 04:13:06;;;;;;;38.20;20.38;;;;;;;;;;4944668;28;20043;-79
2022/03/03 04:15:32;;;;;;;34.60;20.42;;;;;;;;;;4946904;28;20035;-79
2022/03/03 04:17:58;;;;;;;36.85;20.83;;;;;;;;;;4962910;28;20097;-78
2022/03/03 04:20:24;;;;;;;40.72;21.02;;;;;;;;;;4953878;28;20062;-78
2022/03/03 04:22:50;;;;;;;38.42;21.40;;;;;;;;;;4941372;29;20066;-78
2022/03/03 04:25:16;;;;;;;33.53;19.73;;;;;;;;;;4949029;28;20292;-78
2022/03/03 04:27:42;;;;;;;35.60;19.65;;;;;;;;;;4964724;28;20062;-79
2022/03/03 04:30:10;;;;;;;35.15;19.45;;;;;;;;;;4944331;28;20472;-78
2022/03/03 04:32:40;;;;;;;40.70;20.40;;;;;;;;;;4952155;28;20042;-79
2022/03/03 04:35:08;;;;;;;36.25;19.67;;;;;;;;;;4927663;28;20055;-79
2022/03/03 04:37:34;;;;;;;38.97;20.40;;;;;;;;;;4930170;28;20039;-78
2022/03/03 04:39:59;;;;;;;33.55;18.08;;;;;;;;;;4939739;28;20053;-78
2022/03/03 04:42:25;;;;;;;32.00;17.90;;;;;;;;;;4930032;28;20039;-78
2022/03/03 04:44:51;;;;;;;31.80;17.80;;;;;;;;;;4938069;28;20035;-79
2022/03/03 04:47:17;;;;;;;33.40;19.23;;;;;;;;;;4946464;28;20206;-79
2022/03/03 04:49:42;;;;;;;30.40;17.60;;;;;;;;;;4945313;28;20893;-79
2022/03/03 04:52:08;;;;;;;35.78;18.38;;;;;;;;;;4942630;28;20045;-79
2022/03/03 04:54:34;;;;;;;33.65;19.50;;;;;;;;;;4946023;28;20516;-79
2022/03/03 04:57:02;;;;;;;33.83;19.10;;;;;;;;;;4949561;28;20048;-85
2022/03/03 04:59:28;;;;;;;37.38;18.75;;;;;;;;;;4954136;28;20121;-81
2022/03/03 05:01:54;;;;;;;31.55;18.60;;;;;;;;;;4956650;28;20058;-79
2022/03/03 05:04:20;;;;;;;32.83;18.25;;;;;;;;;;4932853;28;20122;-79
2022/03/03 05:06:47;;;;;;;35.90;19.75;;;;;;;;;;4948315;28;20047;-79
2022/03/03 05:09:13;;;;;;;36.00;19.50;;;;;;;;;;4945851;28;20043;-79
2022/03/03 05:11:39;;;;;;;33.80;19.27;;;;;;;;;;4947129;28;20344;-79
2022/03/03 05:14:04;;;;;;;35.28;20.10;;;;;;;;;;4942286;28;20047;-79
2022/03/03 05:16:30;;;;;;;33.08;19.52;;;;;;;;;;4936249;28;20043;-79
2022/03/03 05:18:56;;;;;;;34.38;19.52;;;;;;;;;;4927133;29;20141;-79
2022/03/03 05:21:22;;;;;;;37.03;20.20;;;;;;;;;;4924506;29;20090;-79
2022/03/03 05:23:47;;;;;;;31.90;18.90;;;;;;;;;;4942462;28;20044;-79
2022/03/03 05:26:13;;;;;;;33.70;18.80;;;;;;;;;;4943002;28;20141;-79
2022/03/03 05:28:39;;;;;;;32.25;18.75;;;;;;;;;;4938821;28;20503;-79
2022/03/03 05:31:05;;;;;;;39.72;19.33;;;;;;;;;;4926963;28;20552;-79
2022/03/03 05:33:31;;;;;;;35.13;19.63;;;;;;;;;;4928058;28;20090;-79
2022/03/03 05:36:05;;;;;;;39.17;19.63;;;;;;;;;;4936258;29;20164;-79
2022/03/03 05:38:32;;;;;;;33.92;20.08;;;;;;;;;;4926704;29;20039;-77
2022/03/03 05:41:01;;;;;;;37.08;20.25;;;;;;;;;;4934068;28;20047;-79
2022/03/03 05:43:27;;;;;;;40.55;21.75;;;;;;;;;;4927028;28;20042;-78
2022/03/03 05:45:56;;;;;;;34.55;20.42;;;;;;;;;;4936501;28;20061;-77
2022/03/03 05:48:23;;;;;;;34.33;19.85;;;;;;;;;;4949813;28;20043;-77
2022/03/03 05:50:49;;;;;;;36.00;20.00;;;;;;;;;;4956918;28;20415;-77
2022/03/03 05:53:18;;;;;;;38.85;20.58;;;;;;;;;;4959231;28;20034;-77
2022/03/03 05:55:49;;;;;;;44.60;21.65;;;;;;;;;;4952912;28;20095;-77
2022/03/03 05:58:17;;;;;;;44.97;23.23;;;;;;;;;;4950682;28;20042;-78
2022/03/03 06:00:45;;;;;;;42.38;22.73;;;;;;;;;;4941815;28;20041;-77
2022/03/03 06:03:16;;;;;;;42.90;22.73;;;;;;;;;;4956469;28;20405;-76
2022/03/03 06:05:46;;;;;;;39.88;22.17;;;;;;;;;;4958487;28;20045;-76
2022/03/03 06:08:29;;;;;;;36.03;21.50;;;;;;;;;;4956607;28;20389;-77
2022/03/03 06:11:00;;;;;;;44.08;21.20;;;;;;;;;;4943211;28;20455;-76
2022/03/03 06:13:28;;;;;;;35.85;21.45;;;;;;;;;;4939600;28;20559;-76
2022/03/03 06:15:54;;;;;;;42.47;21.73;;;;;;;;;;4942767;28;20043;-76
2022/03/03 06:18:24;;;;;;;44.25;22.73;;;;;;;;;;4953079;28;20039;-76
2022/03/03 06:20:51;;;;;;;38.80;21.92;;;;;;;;;;4965008;28;20036;-76
2022/03/03 06:23:17;;;;;;;38.80;22.80;;;;;;;;;;4946110;28;20054;-76
2022/03/03 06:25:43;;;;;;;42.13;21.77;;;;;;;;;;4963295;28;20448;-77
2022/03/03 06:28:09;;;;;;;35.47;21.95;;;;;;;;;;4948366;28;20038;-77
2022/03/03 06:30:35;;;;;;;40.20;21.92;;;;;;;;;;4946492;28;20071;-76
2022/03/03 06:33:00;;;;;;;36.15;21.17;;;;;;;;;;4946275;28;20047;-77
2022/03/03 06:35:26;;;;;;;44.35;22.00;;;;;;;;;;4967034;28;20550;-77
2022/03/03 06:37:52;;;;;;;46.20;23.08;;;;;;;;;;4965908;28;20120;-78
2022/03/03 06:40:17;;;;;;;40.30;22.45;;;;;;;;;;4963337;28;20552;-79
2022/03/03 06:42:43;;;;;;;40.80;22.20;;;;;;;;;;4961974;28;20050;-81
2022/03/03 06:45:09;;;;;;;43.95;22.02;;;;;;;;;;4947479;28;20039;-78
2022/03/03 06:47:35;;;;;;;36.88;22.48;;;;;;;;;;4959661;28;20049;-78
2022/03/03 06:50:02;;;;;;;41.38;23.45;;;;;;;;;;4958440;28;20035;-77
2022/03/03 06:52:30;;;;;;;44.25;24.73;;;;;;;;;;4947478;28;20050;-77
2022/03/03 06:54:57;;;;;;;50.85;25.52;;;;;;;;;;4929683;28;20394;-78
2022/03/03 06:57:23;;;;;;;42.45;24.58;;;;;;;;;;4959917;28;20495;-78
2022/03/03 06:59:52;;;;;;;42.90;25.85;;;;;;;;;;4947121;28;20042;-78
2022/03/03 07:02:20;;;;;;;45.30;25.02;;;;;;;;;;4960074;28;20130;-78
2022/03/03 07:04:49;;;;;;;50.65;25.77;;;;;;;;;;4948149;28;20043;-78
2022/03/03 07:07:15;;;;;;;46.00;25.52;;;;;;;;;;4963323;28;20403;-78
2022/03/03 07:09:41;;;;;;;56.70;27.25;;;;;;;;;;4964848;28;20126;-77
2022/03/03 07:12:08;;;;;;;46.22;26.52;;;;;;;;;;4956337;28;20079;-77
2022/03/03 07:14:34;;;;;;;43.53;25.17;;;;;;;;;;4946000;28;20053;-78
2022/03/03 07:17:10;;;;;;;43.28;26.42;;;;;;;;;;4958262;28;20066;-78
2022/03/03 07:19:38;;;;;;;41.20;24.83;;;;;;;;;;4948764;28;20035;-78
2022/03/03 07:22:12;;;;;;;49.10;27.05;;;;;;;;;;4963048;28;20046;-79
2022/03/03 07:25:08;;;;;;;43.65;24.90;;;;;;;;;;4979667;28;20404;-78
2022/03/03 07:27:34;;;;;;;41.67;25.30;;;;;;;;;;4947093;28;20071;-78
2022/03/03 07:30:05;;;;;;;41.00;24.95;;;;;;;;;;4932195;28;20129;-77
2022/03/03 07:32:39;;;;;;;36.28;22.23;;;;;;;;;;4963323;28;20054;-77
2022/03/03 07:35:14;;;;;;;37.97;21.35;;;;;;;;;;4962461;28;20520;-78
2022/03/03 07:38:19;;;;;;;35.65;21.45;;;;;;;;;;4957697;28;20065;-78
2022/03/03 07:40:47;;;;;;;37.72;22.08;;;;;;;;;;4976641;28;20043;-79
2022/03/03 07:43:14;;;;;;;43.85;22.83;;;;;;;;;;4960871;28;20046;-80
2022/03/03 07:45:41;;;;;;;43.38;22.55;;;;;;;;;;4956864;28;20070;-79
2022/03/03 07:48:06;;;;;;;46.63;25.38;;;;;;;;;;4938428;28;20459;-78
2022/03/03 07:50:39;;;;;;;45.28;25.27;;;;;;;;;;4948091;28;20097;-77
2022/03/03 07:53:12;;;;;;;49.13;27.40;;;;;;;;;;4944373;28;20052;-79
2022/03/03 07:55:42;;;;;;;49.60;27.05;;;;;;;;;;4945250;28;20050;-78
2022/03/03 07:58:12;;;;;;;43.88;24.67;;;;;;;;;;4963111;28;20113;-79
2022/03/03 08:00:43;;;;;;;50.78;25.88;;;;;;;;;;4967542;28;20492;-78
2022/03/03 08:03:09;;;;;;;44.75;25.00;;;;;;;;;;4948187;28;20412;-78
2022/03/03 08:05:35;;;;;;;47.78;26.70;;;;;;;;;;4963340;28;20043;-77
2022/03/03 08:08:02;;;;;;;48.95;26.58;;;;;;;;;;4949629;28;20041;-77
2022/03/03 08:10:28;;;;;;;47.10;24.25;;;;;;;;;;4960367;28;20042;-77
2022/03/03 08:12:56;;;;;;;42.97;25.67;;;;;;;;;;4949186;28;20039;-78
2022/03/03 08:15:22;;;;;;;48.38;26.25;;;;;;;;;;4946220;28;20048;-78
2022/03/03 08:17:52;;;;;;;39.03;23.55;;;;;;;;;;4930716;28;20034;-77
2022/03/03 08:20:18;;;;;;;42.20;24.88;;;;;;;;;;4956199;28;20050;-77
2022/03/03 08:22:44;;;;;;;40.72;24.23;;;;;;;;;;4962037;28;20035;-79
2022/03/03 08:25:12;;;;;;;45.40;25.95;;;;;;;;;;4960344;28;20082;-78
2022/03/03 08:27:39;;;;;;;46.20;26.98;;;;;;;;;;4948849;28;20043;-77
2022/03/03 08:30:06;;;;;;;48.67;26.10;;;;;;;;;;4976219;28;20042;-78
2022/03/03 08:32:35;;;;;;;47.50;27.17;;;;;;;;;;4938403;28;20837;-78
2022/03/03 08:35:13;;;;;;;44.13;25.48;;;;;;;;;;4962934;28;20035;-78
2022/03/03 08:37:42;;;;;;;44.78;25.63;;;;;;;;;;4963061;28;20109;-78
2022/03/03 08:40:17;;;;;;;53.60;28.58;;;;;;;;;;4943386;28;20389;-78
2022/03/03 08:42:48;;;;;;;60.35;32.83;;;;;;;;;;4946289;28;20049;-79
2022/03/03 08:45:14;;;;;;;66.25;32.97;;;;;;;;;;4959863;28;20137;-79
2022/03/03 08:47:42;;;;;;;68.32;35.13;;;;;;;;;;4947066;28;20043;-78
2022/03/03 08:50:13;;;;;;;65.85;33.33;;;;;;;;;;4947007;28;20031;-80
2022/03/03 08:52:41;;;;;;;68.05;36.30;;;;;;;;;;4962762;28;20055;-80
2022/03/03 08:55:11;;;;;;;72.20;35.15;;;;;;;;;;4932554;28;20043;-81
2022/03/03 08:57:37;;;;;;;69.32;34.30;;;;;;;;;;4945932;28;20059;-80
2022/03/03 09:00:05;;;;;;;72.22;37.05;;;;;;;;;;4930529;28;20043;-80
2022/03/03 09:02:31;;;;;;;76.28;38.83;;;;;;;;;;4943782;28;20039;-79
2022/03/03 09:04:57;;;;;;;82.32;40.53;;;;;;;;;;4943548;28;20039;-79
2022/03/03 09:07:23;;;;;;;84.25;39.67;;;;;;;;;;4965813;28;20499;-79
2022/03/03 09:09:49;;;;;;;85.05;39.70;;;;;;;;;;4944140;28;20074;-79
2022/03/03 09:12:15;;;;;;;88.93;40.42;;;;;;;;;;4959617;28;20385;-81
2022/03/03 09:14:41;;;;;;;88.00;40.08;;;;;;;;;;4964496;28;20394;-80
2022/03/03 09:17:07;;;;;;;88.78;39.00;;;;;;;;;;4944050;28;20395;-79
2022/03/03 09:19:32;;;;;;;81.47;37.70;;;;;;;;;;4963813;28;20031;-80
2022/03/03 09:21:58;;;;;;;91.10;41.38;;;;;;;;;;4964931;28;20053;-80
2022/03/03 09:24:24;;;;;;;80.15;37.92;;;;;;;;;;4966489;28;20035;-80
2022/03/03 09:26:51;;;;;;;77.85;35.65;;;;;;;;;;4964869;28;20047;-79
2022/03/03 09:29:19;;;;;;;65.05;32.17;;;;;;;;;;4960626;28;20031;-79
2022/03/03 09:31:45;;;;;;;67.40;32.83;;;;;;;;;;4946877;28;20327;-79
2022/03/03 09:34:12;;;;;;;60.47;30.98;;;;;;;;;;4958735;28;20051;-79
2022/03/03 09:36:38;;;;;;;60.05;30.52;;;;;;;;;;4963831;28;20522;-79
2022/03/03 09:39:04;;;;;;;70.63;33.97;;;;;;;;;;4964787;28;20130;-79
2022/03/03 09:41:30;;;;;;;66.15;32.58;;;;;;;;;;4947002;28;20046;-79
2022/03/03 09:43:57;;;;;;;68.18;31.92;;;;;;;;;;4950574;28;20046;-79
2022/03/03 09:46:23;;;;;;;68.25;31.75;;;;;;;;;;4924502;28;20454;-78
2022/03/03 09:48:49;;;;;;;62.65;31.42;;;;;;;;;;4951849;28;20122;-78
2022/03/03 09:51:16;;;;;;;72.97;33.00;;;;;;;;;;4965066;28;20113;-79
2022/03/03 09:53:42;;;;;;;66.82;31.83;;;;;;;;;;4964514;28;20038;-78
2022/03/03 09:56:08;;;;;;;67.80;30.48;;;;;;;;;;4965784;28;20042;-78
2022/03/03 09:58:34;;;;;;;48.80;26.08;;;;;;;;;;4966848;28;20051;-79
2022/03/03 10:01:00;;;;;;;56.63;28.95;;;;;;;;;;4938425;28;20413;-78
2022/03/03 10:03:33;;;;;;;52.78;26.40;;;;;;;;;;4950208;28;20050;-79
2022/03/03 10:06:02;;;;;;;56.47;26.83;;;;;;;;;;4964552;28;20374;-79
2022/03/03 10:08:30;;;;;;;59.28;29.42;;;;;;;;;;4944059;28;20066;-79
2022/03/03 10:10:58;;;;;;;60.20;28.50;;;;;;;;;;4933652;28;20047;-80
2022/03/03 10:13:24;;;;;;;57.95;27.75;;;;;;;;;;4958673;28;20056;-80
2022/03/03 10:15:53;;;;;;;55.50;27.65;;;;;;;;;;4933220;28;20131;-77
2022/03/03 10:18:20;;;;;;;50.13;26.95;;;;;;;;;;4938491;28;20035;-77
2022/03/03 10:20:45;;;;;;;52.70;25.45;;;;;;;;;;4944291;28;20038;-78
2022/03/03 10:23:11;;;;;;;48.42;24.33;;;;;;;;;;4954179;28;20047;-77
2022/03/03 10:25:39;;;;;;;53.35;25.35;;;;;;;;;;4950166;28;20041;-79
2022/03/03 10:28:15;;;;;;;49.47;25.73;;;;;;;;;;4946213;28;20399;-80
2022/03/03 10:31:01;;;;;;;44.97;21.65;;;;;;;;;;4966433;28;20042;-78
2022/03/03 10:33:29;;;;;;;43.08;21.75;;;;;;;;;;4965037;28;20055;-77
2022/03/03 10:36:08;;;;;;;51.40;24.25;;;;;;;;;;4962772;28;20030;-78
2022/03/03 10:38:37;;;;;;;51.50;23.88;;;;;;;;;;4964442;28;20518;-78
2022/03/03 10:41:04;;;;;;;45.30;22.50;;;;;;;;;;4951138;28;20050;-78
2022/03/03 10:43:46;;;;;;;43.60;21.40;;;;;;;;;;4928968;28;20043;-79
2022/03/03 10:46:12;;;;;;;43.40;20.45;;;;;;;;;;4965224;28;20444;-77
2022/03/03 10:48:37;;;;;;;37.15;20.10;;;;;;;;;;4961873;28;20067;-79
2022/03/03 10:51:06;;;;;;;44.50;20.50;;;;;;;;;;4966666;28;20527;-79
2022/03/03 10:53:33;;;;;;;43.22;22.48;;;;;;;;;;4960477;28;20094;-78
2022/03/03 10:56:07;;;;;;;42.97;21.10;;;;;;;;;;4964672;28;20501;-79
2022/03/03 10:58:50;;;;;;;42.05;21.70;;;;;;;;;;4951983;28;20039;-79
2022/03/03 11:01:20;;;;;;;37.92;19.85;;;;;;;;;;4959946;28;20075;-79
2022/03/03 11:03:49;;;;;;;43.25;21.55;;;;;;;;;;4966431;28;20444;-79
2022/03/03 11:06:17;;;;;;;42.05;21.52;;;;;;;;;;4967203;28;20500;-79
2022/03/03 11:08:44;;;;;;;38.90;21.60;;;;;;;;;;4947947;28;20040;-79
2022/03/03 11:11:10;;;;;;;40.67;21.10;;;;;;;;;;4927961;28;20074;-79
2022/03/03 11:13:36;;;;;;;43.55;22.52;;;;;;;;;;4952175;28;20089;-79
2022/03/03 11:16:02;;;;;;;46.30;21.75;;;;;;;;;;4965913;28;20400;-78
2022/03/03 11:18:29;;;;;;;45.67;21.67;;;;;;;;;;4931710;28;20564;-78
2022/03/03 11:20:54;;;;;;;44.10;21.38;;;;;;;;;;4957610;28;20146;-78
2022/03/03 11:23:21;;;;;;;43.00;22.48;;;;;;;;;;4943788;28;20047;-78
2022/03/03 11:25:49;;;;;;;43.45;23.33;;;;;;;;;;4936540;28;20090;-78
2022/03/03 11:28:15;;;;;;;46.28;24.38;;;;;;;;;;4952733;28;20508;-78
2022/03/03 11:30:47;;;;;;;47.50;24.13;;;;;;;;;;4952924;28;20054;-78
2022/03/03 11:33:30;;;;;;;46.22;23.60;;;;;;;;;;4964817;28;20042;-79
2022/03/03 11:36:04;;;;;;;51.55;25.75;;;;;;;;;;4951764;28;20095;-78
2022/03/03 11:38:50;;;;;;;50.35;28.38;;;;;;;;;;4957164;28;20876;-78
2022/03/03 11:41:16;;;;;;;42.78;22.95;;;;;;;;;;4954150;28;20447;-78
2022/03/03 11:44:05;;;;;;;43.85;23.50;;;;;;;;;;4954785;28;20047;-79
2022/03/03 11:46:47;;;;;;;42.75;21.58;;;;;;;;;;4942235;28;20054;-78
2022/03/03 11:49:18;;;;;;;44.60;23.83;;;;;;;;;;4936532;28;20048;-78
2022/03/03 11:51:44;;;;;;;45.80;22.27;;;;;;;;;;4944504;28;20039;-78
2022/03/03 11:54:11;;;;;;;45.72;22.92;;;;;;;;;;4939450;28;20049;-79
2022/03/03 11:57:04;;;;;;;43.92;22.45;;;;;;;;;;4959578;28;20043;-79
2022/03/03 11:59:38;;;;;;;43.10;22.20;;;;;;;;;;4954328;28;20103;-79
2022/03/03 12:02:03;;;;;;;42.85;23.55;;;;;;;;;;4960451;28;20051;-79
2022/03/03 12:04:29;;;;;;;41.58;21.55;;;;;;;;;;4962420;28;20035;-79
2022/03/03 12:06:55;;;;;;;41.42;21.42;;;;;;;;;;4964579;28;20050;-80
2022/03/03 12:09:26;;;;;;;38.22;20.08;;;;;;;;;;4965127;28;20487;-80
2022/03/03 12:12:10;;;;;;;41.97;21.25;;;;;;;;;;4964394;28;20469;-78
2022/03/03 12:14:42;;;;;;;45.45;22.75;;;;;;;;;;4965018;28;20065;-79
2022/03/03 12:17:41;;;;;;;45.35;22.00;;;;;;;;;;4978706;28;20039;-79
2022/03/03 12:20:27;;;;;;;39.63;21.27;;;;;;;;;;4947876;28;20425;-79
2022/03/03 12:23:07;;;;;;;47.75;23.17;;;;;;;;;;4974830;28;20039;-78
2022/03/03 12:25:51;;;;;;;49.53;22.60;;;;;;;;;;4957267;28;20456;-80
2022/03/03 12:28:24;;;;;;;42.63;22.13;;;;;;;;;;4967664;28;20464;-80
2022/03/03 12:30:51;;;;;;;42.60;22.58;;;;;;;;;;4948323;28;20044;-78
2022/03/03 12:33:24;;;;;;;46.38;23.00;;;;;;;;;;4944149;28;20534;-78
2022/03/03 12:35:51;;;;;;;42.75;22.05;;;;;;;;;;4949295;28;20051;-78
2022/03/03 12:38:17;;;;;;;46.97;22.02;;;;;;;;;;4940372;28;20547;-79
2022/03/03 12:40:43;;;;;;;44.92;23.33;;;;;;;;;;4971243;28;20128;-79
2022/03/03 12:43:16;;;;;;;46.08;23.15;;;;;;;;;;4946916;28;20043;-79
2022/03/03 12:45:43;;;;;;;39.15;21.52;;;;;;;;;;4955045;28;20076;-79
2022/03/03 12:48:08;;;;;;;47.95;23.38;;;;;;;;;;4942091;28;20035;-79
2022/03/03 12:50:35;;;;;;;47.22;21.98;;;;;;;;;;4950622;28;20535;-78
2022/03/03 12:53:05;;;;;;;44.35;22.08;;;;;;;;;;4936956;28;20044;-79
2022/03/03 12:55:44;;;;;;;45.55;22.50;;;;;;;;;;4951474;28;20135;-79
2022/03/03 12:58:11;;;;;;;38.83;20.23;;;;;;;;;;4948967;28;20039;-80
2022/03/03 13:00:39;;;;;;;39.95;21.25;;;;;;;;;;4966943;28;20097;-78
2022/03/03 13:03:06;;;;;;;38.38;20.73;;;;;;;;;;4966190;28;20050;-78
2022/03/03 13:05:35;;;;;;;43.47;21.83;;;;;;;;;;4934168;28;20049;-78
2022/03/03 13:08:03;;;;;;;38.35;18.73;;;;;;;;;;4946049;28;20047;-78
2022/03/03 13:10:30;;;;;;;41.00;19.80;;;;;;;;;;4973742;28;20236;-79
2022/03/03 13:12:57;;;;;;;36.20;18.38;;;;;;;;;;4945494;28;20412;-79
2022/03/03 13:15:30;;;;;;;33.75;17.40;;;;;;;;;;4963186;28;20063;-78
2022/03/03 13:18:08;;;;;;;36.30;17.52;;;;;;;;;;4962496;28;20748;-77
2022/03/03 13:20:44;;;;;;;33.05;14.63;;;;;;;;;;4962069;28;20385;-80
2022/03/03 13:23:13;;;;;;;27.17;14.13;;;;;;;;;;4963294;28;20047;-78
2022/03/03 13:25:42;;;;;;;31.27;15.10;;;;;;;;;;4948316;28;20119;-78
2022/03/03 13:28:10;;;;;;;28.15;14.68;;;;;;;;;;4952537;28;20043;-78
2022/03/03 13:30:36;;;;;;;28.30;13.00;;;;;;;;;;4938717;28;20385;-79
2022/03/03 13:33:03;;;;;;;24.30;13.10;;;;;;;;;;4948198;28;20046;-78
2022/03/03 13:35:41;;;;;;;23.17;11.52;;;;;;;;;;4964625;28;20317;-79
2022/03/03 13:38:08;;;;;;;23.75;11.98;;;;;;;;;;4963359;28;20094;-78
2022/03/03 13:40:36;;;;;;;23.52;11.88;;;;;;;;;;4955926;28;20539;-79
2022/03/03 13:43:02;;;;;;;25.00;12.60;;;;;;;;;;4947289;28;20518;-78
2022/03/03 13:45:36;;;;;;;26.85;13.45;;;;;;;;;;4932279;28;20096;-79
2022/03/03 13:48:11;;;;;;;28.77;12.70;;;;;;;;;;4945647;28;20046;-79
2022/03/03 13:50:39;;;;;;;23.98;13.45;;;;;;;;;;4951798;28;20236;-78
2022/03/03 13:53:25;;;;;;;23.70;12.48;;;;;;;;;;4930014;29;20481;-78
2022/03/03 13:56:06;;;;;;;22.67;11.95;;;;;;;;;;4933061;28;20122;-79
2022/03/03 13:58:31;;;;;;;23.60;10.55;;;;;;;;;;4974977;28;20094;-79
2022/03/03 14:00:57;;;;;;;21.08;10.60;;;;;;;;;;4941945;28;20137;-78
2022/03/03 14:03:34;;;;;;;25.70;11.45;;;;;;;;;;4954201;28;20481;-78
2022/03/03 14:06:06;;;;;;;27.15;11.45;;;;;;;;;;4956731;28;20049;-78
2022/03/03 14:08:42;;;;;;;25.20;11.45;;;;;;;;;;4937300;28;20039;-77
2022/03/03 14:11:13;;;;;;;23.15;11.98;;;;;;;;;;4980807;28;20066;-78
2022/03/03 14:13:44;;;;;;;25.55;12.27;;;;;;;;;;4964472;28;20039;-78
2022/03/03 14:16:10;;;;;;;22.05;10.65;;;;;;;;;;4960980;28;20042;-78
2022/03/03 14:18:37;;;;;;;24.90;12.02;;;;;;;;;;4964695;28;20495;-77
2022/03/03 14:21:02;;;;;;;23.65;11.80;;;;;;;;;;4968295;28;20048;-78
2022/03/03 14:23:28;;;;;;;22.98;10.82;;;;;;;;;;4950828;28;21110;-78
2022/03/03 14:25:56;;;;;;;22.40;11.25;;;;;;;;;;4964329;28;20035;-78